Independence — WDD6659 — position and weather

sailwx.info

Track history (hours):
 
Tides and Currents Weather Stations Pressure Air Temp Water Temp Dewpoint Dewpoint Depression Visibility Wind Speed Wind Dir Waves Ship Positions

Independence

Owner: AMNAV Maritime Corporation, Oakland, CA. More information available from US FCC via Universal Licensing System and Coast Guard Vessel Documentation Center.

Last reported at 2017-May-22 15:00 UTC. Time now 2017-May-22 15:27 UTC.
Position N 33°44' W 118°13'.

; draft 4.9 m.

Type: Tug. MMSI: 367175860.

Date/timePositionNaut miles runAvg speedWind from/ knotsBaromVisibWave heightAir tempDewpointWater temp
2017-May-22 15:00N 33°44' W 118°13'1 1.3
2017-May-22 14:00N 33°44' W 118°12'2 3.2
2017-May-22 13:30N 33°45' W 118°13'0 0.6
2017-May-22 12:55N 33°45' W 118°13'0 0.0
2017-May-22 12:29N 33°45' W 118°13'0 0.0
2017-May-22 12:00N 33°45' W 118°13'0 0.0
2017-May-22 11:30N 33°45' W 118°13'0 0.8
2017-May-22 11:00N 33°45' W 118°13'3 5.8
2017-May-22 10:30N 33°43' W 118°16'1 2.1
2017-May-22 09:59N 33°44' W 118°17'0 0.0
2017-May-22 09:30N 33°44' W 118°17'0 0.0
2017-May-22 09:00N 33°44' W 118°17'0 0.0
2017-May-22 08:30N 33°44' W 118°17'0 0.0
2017-May-22 08:00N 33°44' W 118°17'0 0.0
2017-May-22 07:30N 33°44' W 118°17'0 0.0
2017-May-22 07:00N 33°44' W 118°17'0 0.0
2017-May-22 06:30N 33°44' W 118°17'0 0.0
2017-May-22 06:00N 33°44' W 118°17'0 0.0
2017-May-22 05:30N 33°44' W 118°17'1 2.8
2017-May-22 05:00N 33°43' W 118°15'3 6.0
2017-May-22 04:30N 33°45' W 118°12'0 0.6
2017-May-22 04:01N 33°44' W 118°12'1 2.7
2017-May-22 03:30N 33°43' W 118°11'1 1.2
2017-May-22 03:00N 33°44' W 118°12'3 6.5
2017-May-22 02:31N 33°43' W 118°16'1 2.0
2017-May-22 02:00N 33°44' W 118°15'0 0.7
2017-May-22 01:30N 33°44' W 118°15'0 0.1
2017-May-22 01:00N 33°44' W 118°15'0 0.8
2017-May-22 00:30N 33°44' W 118°15'1 1.8
2017-May-22 00:00N 33°44' W 118°17'0 0.0
2017-May-21 23:30N 33°44' W 118°17'0 0.0
2017-May-21 23:00N 33°44' W 118°17'0 0.0
2017-May-21 22:30N 33°44' W 118°17'0 0.0
2017-May-21 22:00N 33°44' W 118°17'0 0.0
2017-May-21 21:30N 33°44' W 118°17'0 0.0
2017-May-21 21:00N 33°44' W 118°17'0 0.0
2017-May-21 20:30N 33°44' W 118°17'0 0.1
2017-May-21 20:00N 33°44' W 118°17'0 0.0
2017-May-21 19:30N 33°44' W 118°17'0 0.0
2017-May-21 19:00N 33°44' W 118°17'0 0.0
2017-May-21 18:30N 33°44' W 118°17'0 0.0
2017-May-21 18:00N 33°44' W 118°17'0 0.0
2017-May-21 17:29N 33°44' W 118°17'0 0.0
2017-May-21 16:26N 33°44' W 118°17'0 0.0
2017-May-21 15:54N 33°44' W 118°17'0 0.0
2017-May-21 15:30N 33°44' W 118°17'0 0.0
2017-May-21 14:59N 33°44' W 118°17'0 0.0
2017-May-21 14:30N 33°44' W 118°17'0 0.0
2017-May-21 13:30N 33°44' W 118°17'0 0.0
2017-May-21 13:00N 33°44' W 118°17'0 0.0
2017-May-21 12:30N 33°44' W 118°17'0 0.0
2017-May-21 12:00N 33°44' W 118°17'0 0.0
2017-May-21 11:31N 33°44' W 118°17'1 2.0
2017-May-21 11:00N 33°43' W 118°16'2 4.8
2017-May-21 10:31N 33°44' W 118°13'3 4.9
2017-May-21 10:00N 33°43' W 118°16'2 4.8
2017-May-21 09:30N 33°45' W 118°16'0 0.9
2017-May-21 09:01N 33°46' W 118°16'0 0.2
2017-May-21 08:31N 33°46' W 118°16'2 4.2
2017-May-21 08:01N 33°44' W 118°17'0 0.0
2017-May-21 07:30N 33°44' W 118°17'1 2.4
2017-May-21 07:00N 33°43' W 118°15'3 6.4
2017-May-21 06:30N 33°46' W 118°13'0 0.0
2017-May-21 06:00N 33°46' W 118°13'0 0.0
2017-May-21 05:30N 33°46' W 118°13'0 0.0
2017-May-21 05:00N 33°46' W 118°13'0 0.1
2017-May-21 04:30N 33°45' W 118°13'1 1.2
2017-May-21 04:00N 33°45' W 118°13'2 3.5
2017-May-21 03:30N 33°44' W 118°11'1 1.4
2017-May-21 03:00N 33°44' W 118°11'1 2.5
2017-May-21 02:30N 33°42' W 118°10'1 2.6
2017-May-21 02:00N 33°41' W 118°10'5 9.8
2017-May-21 01:30N 33°43' W 118°16'1 2.0
2017-May-21 01:00N 33°44' W 118°17'0 0.0
2017-May-21 00:29N 33°44' W 118°17'0 0.0
2017-May-20 23:59N 33°44' W 118°17'0 0.0
2017-May-20 23:30N 33°44' W 118°17'0 0.0
2017-May-20 23:00N 33°44' W 118°17'0 0.0
2017-May-20 22:24N 33°44' W 118°17'0 0.0
2017-May-20 22:00N 33°44' W 118°17'0 0.0
2017-May-20 21:30N 33°44' W 118°17'0 0.0
2017-May-20 21:00N 33°44' W 118°17'0 0.0
2017-May-20 20:30N 33°44' W 118°17'0 0.0
2017-May-20 17:08N 33°44' W 118°17'0 0.0
2017-May-20 16:53N 33°44' W 118°17'0 0.0
2017-May-20 16:30N 33°44' W 118°17'0 0.0
2017-May-20 16:00N 33°44' W 118°17'0 0.0
2017-May-20 14:58N 33°44' W 118°17'0 0.0
2017-May-20 14:27N 33°44' W 118°17'0 0.0
2017-May-20 13:30N 33°44' W 118°17'1 1.7
2017-May-20 13:00N 33°43' W 118°16'1 2.1
2017-May-20 12:31N 33°44' W 118°15'0 0.9
2017-May-20 12:00N 33°44' W 118°16'2 3.9
2017-May-20 11:30N 33°45' W 118°17'0 0.1
2017-May-20 11:00N 33°46' W 118°17'0 0.4
2017-May-20 10:29N 33°45' W 118°16'2 1.1
2017-May-20 09:00N 33°44' W 118°17'0 0.0
2017-May-20 08:26N 33°44' W 118°17'0 0.0
2017-May-20 07:58N 33°44' W 118°17'0 0.0
2017-May-20 07:30N 33°44' W 118°17'0 0.0
2017-May-20 07:00N 33°44' W 118°17'0 0.0
2017-May-20 06:27N 33°44' W 118°17'0 0.0
2017-May-20 06:00N 33°44' W 118°17'0 0.0
2017-May-20 05:30N 33°44' W 118°17'0 0.0
2017-May-20 05:00N 33°44' W 118°17'0 0.0
2017-May-20 02:10N 33°44' W 118°16'0 0.3
2017-May-20 01:59N 33°44' W 118°16'1 2.1
2017-May-20 01:30N 33°45' W 118°16'1 1.9
2017-May-20 01:00N 33°44' W 118°16'0 0.2
2017-May-20 00:26N 33°44' W 118°17'0 0.0
2017-May-20 00:00N 33°44' W 118°17'0 0.0
2017-May-19 23:28N 33°44' W 118°17'0 0.0
2017-May-19 22:58N 33°44' W 118°17'0 0.0
2017-May-19 18:26N 33°44' W 118°17'1 2.5
2017-May-19 18:00N 33°44' W 118°15'1 1.2
2017-May-19 17:30N 33°43' W 118°16'1 2.3
2017-May-19 17:00N 33°43' W 118°15'1 2.9
2017-May-19 16:31N 33°43' W 118°16'5 9.1
2017-May-19 16:00N 33°44' W 118°11'1 2.5
2017-May-19 15:30N 33°42' W 118°11'3 5.7
2017-May-19 15:00N 33°40' W 118°11'4 3.5
2017-May-19 14:00N 33°42' W 118°14'3 5.9
2017-May-19 13:30N 33°44' W 118°16'2 3.2
2017-May-19 13:00N 33°45' W 118°16'0 0.6
2017-May-19 12:30N 33°46' W 118°17'2 3.6
2017-May-19 12:00N 33°44' W 118°16'2 3.4
2017-May-19 11:31N 33°43' W 118°15'1 2.1
2017-May-19 11:00N 33°43' W 118°16'1 1.6
2017-May-19 10:30N 33°44' W 118°17'0 0.0
2017-May-19 10:00N 33°44' W 118°17'0 0.0
2017-May-19 09:29N 33°44' W 118°17'0 0.0
2017-May-19 08:59N 33°44' W 118°17'0 0.0
2017-May-19 08:30N 33°44' W 118°17'0 0.0
2017-May-19 07:58N 33°44' W 118°17'0 0.0
2017-May-19 07:30N 33°44' W 118°17'0 0.0
2017-May-19 07:00N 33°44' W 118°17'0 0.0
2017-May-19 06:30N 33°44' W 118°17'0 0.0
2017-May-19 06:00N 33°44' W 118°17'0 0.0
2017-May-19 05:30N 33°44' W 118°17'0 0.0
2017-May-19 05:00N 33°44' W 118°17'0 0.0
2017-May-19 04:30N 33°44' W 118°17'0 0.0
2017-May-19 04:00N 33°44' W 118°17'0 0.0
2017-May-19 03:30N 33°44' W 118°17'0 0.0
2017-May-19 03:00N 33°44' W 118°17'0 0.0
2017-May-19 02:29N 33°44' W 118°17'0 0.0
2017-May-19 02:00N 33°44' W 118°17'0 0.0
2017-May-19 01:30N 33°44' W 118°17'0 0.0
2017-May-19 01:00N 33°44' W 118°17'1 1.2
2017-May-19 00:30N 33°44' W 118°17'1 2.5
2017-May-19 00:00N 33°46' W 118°17'0 0.9
2017-May-18 23:31N 33°45' W 118°16'2 3.5
2017-May-18 23:00N 33°43' W 118°16'0 0.9
2017-May-18 22:30N 33°43' W 118°16'1 1.4
2017-May-18 22:00N 33°44' W 118°16'0 0.1
2017-May-18 20:52N 33°44' W 118°17'1 1.5
2017-May-18 20:29N 33°43' W 118°16'0 0.6
2017-May-18 19:39N 33°43' W 118°17'0 0.9
2017-May-18 19:27N 33°43' W 118°16'2 2.6
2017-May-18 18:51N 33°43' W 118°15'3 3.3
2017-May-18 18:00N 33°45' W 118°13'  
2017-May-14 11:20N 33°44' W 118°17'0 0.0
2017-May-14 11:00N 33°44' W 118°17'0 0.0
2017-May-14 10:28N 33°44' W 118°17'0 0.0
2017-May-14 09:59N 33°44' W 118°17'0 0.0
2017-May-14 09:30N 33°44' W 118°17'0 0.0
2017-May-14 09:00N 33°44' W 118°17'0 0.0
2017-May-14 08:30N 33°44' W 118°17'0 0.0
2017-May-14 08:00N 33°44' W 118°17'0 0.0
2017-May-14 07:30N 33°44' W 118°17'2 4.1
2017-May-14 07:00N 33°43' W 118°14'3 6.4
2017-May-14 06:31N 33°46' W 118°13'0 0.5
2017-May-14 06:00N 33°46' W 118°13'1 1.7
2017-May-14 05:30N 33°45' W 118°13'2 4.8
2017-May-14 05:00N 33°44' W 118°11'3 5.7
2017-May-14 04:30N 33°41' W 118°10'0 0.4
2017-May-14 04:00N 33°41' W 118°10'4 8.4
2017-May-14 03:30N 33°43' W 118°15'2 3.7
2017-May-14 03:01N 33°44' W 118°17'0 0.0
2017-May-14 02:30N 33°44' W 118°17'0 0.0
2017-May-14 02:00N 33°44' W 118°17'0 0.0
2017-May-14 01:30N 33°44' W 118°17'0 0.0
2017-May-14 01:00N 33°44' W 118°17'0 0.0
2017-May-14 00:30N 33°44' W 118°17'  
Track history (hours):
 
Tides and Currents Weather Stations Pressure Air Temp Water Temp Dewpoint Dewpoint Depression Visibility Wind Speed Wind Dir Waves Ship Positions

Independence

Owner: AMNAV Maritime Corporation, Oakland, CA. More information available from US FCC via Universal Licensing System and Coast Guard Vessel Documentation Center.

Last reported at 2017-May-22 15:00 UTC. Time now 2017-May-22 15:27 UTC.
Position N 33°44' W 118°13'.

; draft 4.9 m.

Type: Tug. MMSI: 367175860.

Date/timePositionNaut miles runAvg speedWind from/ knotsBaromVisibWave heightAir tempDewpointWater temp
2017-May-22 15:00N 33°44' W 118°13'1 1.3
2017-May-22 14:00N 33°44' W 118°12'2 3.2
2017-May-22 13:30N 33°45' W 118°13'0 0.6
2017-May-22 12:55N 33°45' W 118°13'0 0.0
2017-May-22 12:29N 33°45' W 118°13'0 0.0
2017-May-22 12:00N 33°45' W 118°13'0 0.0
2017-May-22 11:30N 33°45' W 118°13'0 0.8
2017-May-22 11:00N 33°45' W 118°13'3 5.8
2017-May-22 10:30N 33°43' W 118°16'1 2.1
2017-May-22 09:59N 33°44' W 118°17'0 0.0
2017-May-22 09:30N 33°44' W 118°17'0 0.0
2017-May-22 09:00N 33°44' W 118°17'0 0.0
2017-May-22 08:30N 33°44' W 118°17'0 0.0
2017-May-22 08:00N 33°44' W 118°17'0 0.0
2017-May-22 07:30N 33°44' W 118°17'0 0.0
2017-May-22 07:00N 33°44' W 118°17'0 0.0
2017-May-22 06:30N 33°44' W 118°17'0 0.0
2017-May-22 06:00N 33°44' W 118°17'0 0.0
2017-May-22 05:30N 33°44' W 118°17'1 2.8
2017-May-22 05:00N 33°43' W 118°15'3 6.0
2017-May-22 04:30N 33°45' W 118°12'0 0.6
2017-May-22 04:01N 33°44' W 118°12'1 2.7
2017-May-22 03:30N 33°43' W 118°11'1 1.2
2017-May-22 03:00N 33°44' W 118°12'3 6.5
2017-May-22 02:31N 33°43' W 118°16'1 2.0
2017-May-22 02:00N 33°44' W 118°15'0 0.7
2017-May-22 01:30N 33°44' W 118°15'0 0.1
2017-May-22 01:00N 33°44' W 118°15'0 0.8
2017-May-22 00:30N 33°44' W 118°15'1 1.8
2017-May-22 00:00N 33°44' W 118°17'0 0.0
2017-May-21 23:30N 33°44' W 118°17'0 0.0
2017-May-21 23:00N 33°44' W 118°17'0 0.0
2017-May-21 22:30N 33°44' W 118°17'0 0.0
2017-May-21 22:00N 33°44' W 118°17'0 0.0
2017-May-21 21:30N 33°44' W 118°17'0 0.0
2017-May-21 21:00N 33°44' W 118°17'0 0.0
2017-May-21 20:30N 33°44' W 118°17'0 0.1
2017-May-21 20:00N 33°44' W 118°17'0 0.0
2017-May-21 19:30N 33°44' W 118°17'0 0.0
2017-May-21 19:00N 33°44' W 118°17'0 0.0
2017-May-21 18:30N 33°44' W 118°17'0 0.0
2017-May-21 18:00N 33°44' W 118°17'0 0.0
2017-May-21 17:29N 33°44' W 118°17'0 0.0
2017-May-21 16:26N 33°44' W 118°17'0 0.0
2017-May-21 15:54N 33°44' W 118°17'0 0.0
2017-May-21 15:30N 33°44' W 118°17'0 0.0
2017-May-21 14:59N 33°44' W 118°17'0 0.0
2017-May-21 14:30N 33°44' W 118°17'0 0.0
2017-May-21 13:30N 33°44' W 118°17'0 0.0
2017-May-21 13:00N 33°44' W 118°17'0 0.0
2017-May-21 12:30N 33°44' W 118°17'0 0.0
2017-May-21 12:00N 33°44' W 118°17'0 0.0
2017-May-21 11:31N 33°44' W 118°17'1 2.0
2017-May-21 11:00N 33°43' W 118°16'2 4.8
2017-May-21 10:31N 33°44' W 118°13'3 4.9
2017-May-21 10:00N 33°43' W 118°16'2 4.8
2017-May-21 09:30N 33°45' W 118°16'0 0.9
2017-May-21 09:01N 33°46' W 118°16'0 0.2
2017-May-21 08:31N 33°46' W 118°16'2 4.2
2017-May-21 08:01N 33°44' W 118°17'0 0.0
2017-May-21 07:30N 33°44' W 118°17'1 2.4
2017-May-21 07:00N 33°43' W 118°15'3 6.4
2017-May-21 06:30N 33°46' W 118°13'0 0.0
2017-May-21 06:00N 33°46' W 118°13'0 0.0
2017-May-21 05:30N 33°46' W 118°13'0 0.0
2017-May-21 05:00N 33°46' W 118°13'0 0.1
2017-May-21 04:30N 33°45' W 118°13'1 1.2
2017-May-21 04:00N 33°45' W 118°13'2 3.5
2017-May-21 03:30N 33°44' W 118°11'1 1.4
2017-May-21 03:00N 33°44' W 118°11'1 2.5
2017-May-21 02:30N 33°42' W 118°10'1 2.6
2017-May-21 02:00N 33°41' W 118°10'5 9.8
2017-May-21 01:30N 33°43' W 118°16'1 2.0
2017-May-21 01:00N 33°44' W 118°17'0 0.0
2017-May-21 00:29N 33°44' W 118°17'0 0.0
2017-May-20 23:59N 33°44' W 118°17'0 0.0
2017-May-20 23:30N 33°44' W 118°17'0 0.0
2017-May-20 23:00N 33°44' W 118°17'0 0.0
2017-May-20 22:24N 33°44' W 118°17'0 0.0
2017-May-20 22:00N 33°44' W 118°17'0 0.0
2017-May-20 21:30N 33°44' W 118°17'0 0.0
2017-May-20 21:00N 33°44' W 118°17'0 0.0
2017-May-20 20:30N 33°44' W 118°17'0 0.0
2017-May-20 17:08N 33°44' W 118°17'0 0.0
2017-May-20 16:53N 33°44' W 118°17'0 0.0
2017-May-20 16:30N 33°44' W 118°17'0 0.0
2017-May-20 16:00N 33°44' W 118°17'0 0.0
2017-May-20 14:58N 33°44' W 118°17'0 0.0
2017-May-20 14:27N 33°44' W 118°17'0 0.0
2017-May-20 13:30N 33°44' W 118°17'1 1.7
2017-May-20 13:00N 33°43' W 118°16'1 2.1
2017-May-20 12:31N 33°44' W 118°15'0 0.9
2017-May-20 12:00N 33°44' W 118°16'2 3.9
2017-May-20 11:30N 33°45' W 118°17'0 0.1
2017-May-20 11:00N 33°46' W 118°17'0 0.4
2017-May-20 10:29N 33°45' W 118°16'2 1.1
2017-May-20 09:00N 33°44' W 118°17'0 0.0
2017-May-20 08:26N 33°44' W 118°17'0 0.0
2017-May-20 07:58N 33°44' W 118°17'0 0.0
2017-May-20 07:30N 33°44' W 118°17'0 0.0
2017-May-20 07:00N 33°44' W 118°17'0 0.0
2017-May-20 06:27N 33°44' W 118°17'0 0.0
2017-May-20 06:00N 33°44' W 118°17'0 0.0
2017-May-20 05:30N 33°44' W 118°17'0 0.0
2017-May-20 05:00N 33°44' W 118°17'0 0.0
2017-May-20 02:10N 33°44' W 118°16'0 0.3
2017-May-20 01:59N 33°44' W 118°16'1 2.1
2017-May-20 01:30N 33°45' W 118°16'1 1.9
2017-May-20 01:00N 33°44' W 118°16'0 0.2
2017-May-20 00:26N 33°44' W 118°17'0 0.0
2017-May-20 00:00N 33°44' W 118°17'0 0.0
2017-May-19 23:28N 33°44' W 118°17'0 0.0
2017-May-19 22:58N 33°44' W 118°17'0 0.0
2017-May-19 18:26N 33°44' W 118°17'1 2.5
2017-May-19 18:00N 33°44' W 118°15'1 1.2
2017-May-19 17:30N 33°43' W 118°16'1 2.3
2017-May-19 17:00N 33°43' W 118°15'1 2.9
2017-May-19 16:31N 33°43' W 118°16'5 9.1
2017-May-19 16:00N 33°44' W 118°11'1 2.5
2017-May-19 15:30N 33°42' W 118°11'3 5.7
2017-May-19 15:00N 33°40' W 118°11'4 3.5
2017-May-19 14:00N 33°42' W 118°14'3 5.9
2017-May-19 13:30N 33°44' W 118°16'2 3.2
2017-May-19 13:00N 33°45' W 118°16'0 0.6
2017-May-19 12:30N 33°46' W 118°17'2 3.6
2017-May-19 12:00N 33°44' W 118°16'2 3.4
2017-May-19 11:31N 33°43' W 118°15'1 2.1
2017-May-19 11:00N 33°43' W 118°16'1 1.6
2017-May-19 10:30N 33°44' W 118°17'0 0.0
2017-May-19 10:00N 33°44' W 118°17'0 0.0
2017-May-19 09:29N 33°44' W 118°17'0 0.0
2017-May-19 08:59N 33°44' W 118°17'0 0.0
2017-May-19 08:30N 33°44' W 118°17'0 0.0
2017-May-19 07:58N 33°44' W 118°17'0 0.0
2017-May-19 07:30N 33°44' W 118°17'0 0.0
2017-May-19 07:00N 33°44' W 118°17'0 0.0
2017-May-19 06:30N 33°44' W 118°17'0 0.0
2017-May-19 06:00N 33°44' W 118°17'0 0.0
2017-May-19 05:30N 33°44' W 118°17'0 0.0
2017-May-19 05:00N 33°44' W 118°17'0 0.0
2017-May-19 04:30N 33°44' W 118°17'0 0.0
2017-May-19 04:00N 33°44' W 118°17'0 0.0
2017-May-19 03:30N 33°44' W 118°17'0 0.0
2017-May-19 03:00N 33°44' W 118°17'0 0.0
2017-May-19 02:29N 33°44' W 118°17'0 0.0
2017-May-19 02:00N 33°44' W 118°17'0 0.0
2017-May-19 01:30N 33°44' W 118°17'0 0.0
2017-May-19 01:00N 33°44' W 118°17'1 1.2
2017-May-19 00:30N 33°44' W 118°17'1 2.5
2017-May-19 00:00N 33°46' W 118°17'0 0.9
2017-May-18 23:31N 33°45' W 118°16'2 3.5
2017-May-18 23:00N 33°43' W 118°16'0 0.9
2017-May-18 22:30N 33°43' W 118°16'1 1.4
2017-May-18 22:00N 33°44' W 118°16'0 0.1
2017-May-18 20:52N 33°44' W 118°17'1 1.5
2017-May-18 20:29N 33°43' W 118°16'0 0.6
2017-May-18 19:39N 33°43' W 118°17'0 0.9
2017-May-18 19:27N 33°43' W 118°16'2 2.6
2017-May-18 18:51N 33°43' W 118°15'3 3.3
2017-May-18 18:00N 33°45' W 118°13'  
2017-May-14 11:20N 33°44' W 118°17'0 0.0
2017-May-14 11:00N 33°44' W 118°17'0 0.0
2017-May-14 10:28N 33°44' W 118°17'0 0.0
2017-May-14 09:59N 33°44' W 118°17'0 0.0
2017-May-14 09:30N 33°44' W 118°17'0 0.0
2017-May-14 09:00N 33°44' W 118°17'0 0.0
2017-May-14 08:30N 33°44' W 118°17'0 0.0
2017-May-14 08:00N 33°44' W 118°17'0 0.0
2017-May-14 07:30N 33°44' W 118°17'2 4.1
2017-May-14 07:00N 33°43' W 118°14'3 6.4
2017-May-14 06:31N 33°46' W 118°13'0 0.5
2017-May-14 06:00N 33°46' W 118°13'1 1.7
2017-May-14 05:30N 33°45' W 118°13'2 4.8
2017-May-14 05:00N 33°44' W 118°11'3 5.7
2017-May-14 04:30N 33°41' W 118°10'0 0.4
2017-May-14 04:00N 33°41' W 118°10'4 8.4
2017-May-14 03:30N 33°43' W 118°15'2 3.7
2017-May-14 03:01N 33°44' W 118°17'0 0.0
2017-May-14 02:30N 33°44' W 118°17'0 0.0
2017-May-14 02:00N 33°44' W 118°17'0 0.0
2017-May-14 01:30N 33°44' W 118°17'0 0.0
2017-May-14 01:00N 33°44' W 118°17'0 0.0
2017-May-14 00:30N 33°44' W 118°17'  

Dump ship's entire track history